Time;durP1;ratioP1;P1;durP2;ratioP2;P2;SDS_P1;SDS_P2;PMS_P1;PMS_P2;Temp;Humidity;BMP_temperature;BMP_pressure;BME280_temperature;BME280_humidity;BME280_pressure;Samples;Min_cycle;Max_cycle;Signal;HPM_P1;HPM_P2
2021/12/22 00:01:08;;;;;;;0.00;0.00;;;;;;;8.42;67.68;101324.56;7357441;19;20090;-57
2021/12/22 00:03:34;;;;;;;0.10;0.10;;;;;;;8.43;68.12;101321.06;7365233;19;20684;-58
2021/12/22 00:05:59;;;;;;;0.10;0.10;;;;;;;8.42;68.06;101315.00;7358934;19;20054;-58
2021/12/22 00:08:26;;;;;;;0.00;0.00;;;;;;;8.43;67.90;101311.53;7364664;19;20030;-59
2021/12/22 00:10:52;;;;;;;0.00;0.00;;;;;;;8.29;67.54;101282.06;7362946;19;20062;-59
2021/12/22 00:13:17;;;;;;;0.00;0.00;;;;;;;8.46;67.71;101297.63;7360462;19;20014;-59
2021/12/22 00:15:43;;;;;;;0.00;0.00;;;;;;;8.46;67.60;101300.22;7364907;19;20033;-58
2021/12/22 00:18:09;;;;;;;0.08;0.08;;;;;;;8.17;67.35;101235.28;7354836;19;20679;-59
2021/12/22 00:20:35;;;;;;;0.00;0.00;;;;;;;8.47;67.38;101281.16;7364075;19;20044;-57
2021/12/22 00:23:00;;;;;;;0.00;0.00;;;;;;;8.47;67.65;101275.94;7364769;19;20007;-58
2021/12/22 00:25:26;;;;;;;0.08;0.08;;;;;;;8.47;67.32;101271.59;7362617;19;20039;-59
2021/12/22 00:27:58;;;;;;;0.00;0.00;;;;;;;8.49;67.47;101266.38;7363494;19;20015;-58
2021/12/22 00:30:27;;;;;;;0.10;0.10;;;;;;;8.40;67.38;101253.41;7368811;19;20021;-59
2021/12/22 00:32:55;;;;;;;0.03;0.03;;;;;;;8.46;67.59;101275.06;7368445;19;20040;-59
2021/12/22 00:35:27;;;;;;;0.00;0.00;;;;;;;8.46;67.48;101259.44;7367468;19;20006;-55
2021/12/22 00:37:52;;;;;;;0.00;0.00;;;;;;;8.48;67.81;101251.66;7369801;19;20435;-59
2021/12/22 00:40:18;;;;;;;0.00;0.00;;;;;;;8.40;67.22;101222.19;7367185;19;20015;-59
2021/12/22 00:42:44;;;;;;;0.10;0.10;;;;;;;8.47;67.56;101249.91;7366989;19;20037;-58
2021/12/22 00:45:10;;;;;;;0.00;0.00;;;;;;;8.32;67.43;101225.66;7367764;19;20028;-59
2021/12/22 00:47:36;;;;;;;0.00;0.00;;;;;;;8.42;67.42;101241.28;7364738;19;20455;-58
2021/12/22 00:50:04;;;;;;;0.00;0.00;;;;;;;8.38;67.37;101232.59;7365887;19;20015;-58
2021/12/22 00:52:29;;;;;;;0.00;0.00;;;;;;;8.39;67.07;101242.13;7366380;19;20010;-59
2021/12/22 00:54:55;;;;;;;0.00;0.00;;;;;;;8.36;67.35;101234.34;7367888;19;20018;-58
2021/12/22 00:57:21;;;;;;;0.00;0.00;;;;;;;8.34;67.73;101223.03;7357101;19;20399;-60
2021/12/22 00:59:47;;;;;;;0.00;0.00;;;;;;;8.34;67.38;101223.03;7367299;19;20018;-59
2021/12/22 01:02:16;;;;;;;0.00;0.00;;;;;;;8.32;67.45;101219.59;7361508;19;20676;-59
2021/12/22 01:04:42;;;;;;;0.00;0.00;;;;;;;8.32;67.65;101204.00;7365813;19;20006;-59
2021/12/22 01:07:09;;;;;;;0.00;0.00;;;;;;;8.31;67.72;101212.63;7371792;19;20089;-58
2021/12/22 01:09:35;;;;;;;0.10;0.10;;;;;;;8.31;67.41;101212.63;7367000;19;20446;-59
2021/12/22 01:12:02;;;;;;;0.03;0.03;;;;;;;8.29;67.54;101198.78;7368372;19;21085;-58
2021/12/22 01:14:27;;;;;;;0.00;0.00;;;;;;;8.27;67.49;101185.78;7367729;19;20074;-59
2021/12/22 01:16:58;;;;;;;0.00;0.00;;;;;;;8.17;67.50;101172.84;7369268;19;20106;-59
2021/12/22 01:19:32;;;;;;;0.05;0.05;;;;;;;8.25;67.56;101186.66;7366155;19;20014;-57
2021/12/22 01:22:07;;;;;;;0.05;0.05;;;;;;;8.21;67.67;101174.53;7368815;19;20019;-57
2021/12/22 01:24:34;;;;;;;0.00;0.00;;;;;;;8.20;67.29;101176.28;7368369;19;20013;-58
2021/12/22 01:27:07;;;;;;;0.00;0.00;;;;;;;8.19;67.46;101173.69;7368432;19;20457;-58
2021/12/22 01:29:35;;;;;;;0.05;0.05;;;;;;;8.16;67.59;101161.59;7369309;19;20531;-59
2021/12/22 01:32:01;;;;;;;0.10;0.10;;;;;;;8.11;67.66;101168.53;7361340;19;20037;-59
2021/12/22 01:34:27;;;;;;;0.05;0.05;;;;;;;8.13;67.59;101165.94;7367718;19;20013;-59
2021/12/22 01:36:53;;;;;;;0.00;0.00;;;;;;;8.02;67.83;101140.84;7368453;19;19998;-58
2021/12/22 01:39:19;;;;;;;0.05;0.05;;;;;;;8.12;67.99;101148.59;7369470;19;20015;-58
2021/12/22 01:41:44;;;;;;;0.05;0.05;;;;;;;8.14;67.99;101132.09;7367002;19;20025;-57
2021/12/22 01:44:13;;;;;;;0.00;0.00;;;;;;;8.13;68.00;101134.72;7368433;19;20014;-59
2021/12/22 01:49:16;;;;;;;0.00;0.00;;;;;;;8.15;67.41;101148.56;7367279;19;20010;-57
2021/12/22 01:51:51;;;;;;;0.00;0.00;;;;;;;8.16;67.50;101155.47;7367319;19;20016;-59
2021/12/22 01:54:19;;;;;;;;;;;;;;;8.14;67.41;101141.63;7365941;19;20018;-59
2021/12/22 01:56:46;;;;;;;0.10;0.10;;;;;;;8.11;66.96;101141.63;7371273;19;19939;-59
2021/12/22 01:59:11;;;;;;;0.00;0.00;;;;;;;8.09;66.90;101138.19;7363540;19;20027;-58
2021/12/22 02:01:39;;;;;;;0.00;0.00;;;;;;;8.07;67.24;101136.47;7369631;19;20015;-59
2021/12/22 02:04:10;;;;;;;0.00;0.00;;;;;;;8.05;67.22;101126.94;7370072;19;20049;-58
2021/12/22 02:06:44;;;;;;;0.10;0.10;;;;;;;8.02;67.58;101130.44;7368394;19;20018;-59
2021/12/22 02:09:11;;;;;;;0.00;0.00;;;;;;;7.73;67.41;101069.91;7359708;19;20015;-57
2021/12/22 02:11:37;;;;;;;0.00;0.00;;;;;;;8.01;67.62;101120.91;7367085;19;20018;-56
2021/12/22 02:14:04;;;;;;;0.00;0.00;;;;;;;7.90;67.54;101090.63;7362011;19;20466;-59
2021/12/22 02:16:34;;;;;;;0.03;0.03;;;;;;;7.91;67.64;101093.22;7367755;19;20322;-58
2021/12/22 02:19:01;;;;;;;0.10;0.10;;;;;;;8.00;67.27;101102.69;7365395;19;20804;-58
2021/12/22 02:21:31;;;;;;;0.10;0.10;;;;;;;8.00;67.52;101087.94;7362324;19;20010;-59
2021/12/22 02:23:58;;;;;;;0.00;0.00;;;;;;;7.99;67.40;101085.38;7367822;19;20066;-59
2021/12/22 02:26:31;;;;;;;0.00;0.00;;;;;;;8.01;67.52;101094.91;7367607;19;20022;-57
2021/12/22 02:29:04;;;;;;;0.00;0.00;;;;;;;8.02;67.15;101101.81;7364012;19;20006;-59
2021/12/22 02:31:37;;;;;;;0.00;0.00;;;;;;;8.02;67.70;101106.16;7367087;19;20018;-59
2021/12/22 02:34:02;;;;;;;0.00;0.00;;;;;;;7.99;67.44;101107.03;7368141;19;20010;-60
2021/12/22 02:36:34;;;;;;;0.00;0.00;;;;;;;8.05;67.49;101108.72;7365332;19;20014;-59
2021/12/22 02:39:00;;;;;;;0.00;0.00;;;;;;;8.04;67.16;101094.00;7368383;19;20014;-58
2021/12/22 02:41:29;;;;;;;0.10;0.10;;;;;;;8.05;67.32;101100.94;7363586;19;20017;-58
2021/12/22 02:43:57;;;;;;;0.00;0.00;;;;;;;8.05;67.38;101104.38;7367496;19;20010;-58
2021/12/22 02:46:27;;;;;;;;;;;;;;;8.08;67.35;101080.13;7363352;19;20050;-60
2021/12/22 02:48:54;;;;;;;0.00;0.00;;;;;;;8.04;67.55;101074.06;7365722;19;19940;-58
2021/12/22 02:51:20;;;;;;;0.00;0.00;;;;;;;8.01;67.35;101079.28;7358427;19;20007;-59
2021/12/22 02:54:00;;;;;;;0.00;0.00;;;;;;;8.04;67.57;101078.41;7359987;19;20014;-59
2021/12/22 02:56:33;;;;;;;0.10;0.10;;;;;;;8.02;67.52;101083.63;7364564;19;20343;-59
2021/12/22 02:59:10;;;;;;;0.00;0.00;;;;;;;8.01;67.94;101079.28;7352021;19;20009;-59
2021/12/22 03:04:20;;;;;;;0.00;0.00;;;;;;;8.00;67.85;101080.16;7361903;19;20744;-58
2021/12/22 03:06:56;;;;;;;0.00;0.00;;;;;;;7.99;67.52;101086.22;7363640;19;20490;-59
2021/12/22 03:09:27;;;;;;;0.00;0.00;;;;;;;7.98;67.53;101084.50;7362203;19;20010;-58
2021/12/22 03:11:54;;;;;;;0.00;0.00;;;;;;;7.96;67.71;101081.06;7365995;19;20006;-58
2021/12/22 03:14:21;;;;;;;0.00;0.00;;;;;;;7.96;67.84;101081.06;7364022;19;20038;-58
2021/12/22 03:16:47;;;;;;;0.00;0.00;;;;;;;7.95;67.93;101071.50;7360610;19;20014;-58
2021/12/22 03:19:16;;;;;;;0.00;0.00;;;;;;;7.96;67.69;101078.47;7363461;19;20035;-59
2021/12/22 03:21:43;;;;;;;0.00;0.00;;;;;;;7.92;68.09;101074.16;7357899;19;22410;-58
2021/12/22 03:24:10;;;;;;;0.10;0.10;;;;;;;7.89;67.89;101065.50;7363916;19;20332;-59
2021/12/22 03:26:42;;;;;;;0.00;0.00;;;;;;;7.92;68.01;101076.75;7358469;19;20031;-59
2021/12/22 03:29:18;;;;;;;0.00;0.00;;;;;;;7.94;68.02;101068.94;7362730;19;20023;-59
2021/12/22 03:31:45;;;;;;;0.00;0.00;;;;;;;7.91;67.74;101077.63;7364139;19;20039;-58
2021/12/22 03:34:11;;;;;;;0.00;0.00;;;;;;;7.90;68.07;101055.06;7362441;19;25621;-58
2021/12/22 03:36:37;;;;;;;0.00;0.00;;;;;;;7.87;68.03;101047.31;7364445;19;20007;-58
2021/12/22 03:39:05;;;;;;;0.10;0.10;;;;;;;7.90;67.84;101069.81;7362807;19;20006;-59
2021/12/22 03:41:32;;;;;;;0.03;0.03;;;;;;;7.88;68.05;101054.22;7363876;19;20785;-59
2021/12/22 03:43:57;;;;;;;0.00;0.00;;;;;;;7.87;68.04;101049.91;7361282;19;20014;-59
2021/12/22 03:46:23;;;;;;;0.00;0.00;;;;;;;7.86;68.14;101048.19;7364592;19;20033;-59
2021/12/22 03:48:48;;;;;;;0.10;0.10;;;;;;;7.85;68.00;101042.97;7363220;19;20015;-59
2021/12/22 03:51:14;;;;;;;0.00;0.00;;;;;;;7.80;67.71;101033.47;7351451;19;20006;-59
2021/12/22 03:53:40;;;;;;;0.00;0.00;;;;;;;7.80;68.04;101038.66;7362297;19;20010;-58
2021/12/22 03:56:05;;;;;;;0.00;0.00;;;;;;;7.80;67.87;101032.59;7358680;19;20089;-59
2021/12/22 03:58:31;;;;;;;0.10;0.10;;;;;;;7.77;68.22;101038.69;7359175;19;20010;-58
2021/12/22 04:00:57;;;;;;;0.00;0.00;;;;;;;7.76;68.32;101046.50;7361776;19;20042;-59
2021/12/22 04:03:27;;;;;;;0.10;0.10;;;;;;;7.74;68.21;101035.25;7358041;19;20006;-60
2021/12/22 04:05:52;;;;;;;0.00;0.00;;;;;;;7.74;67.97;101048.25;7360431;19;20026;-59
2021/12/22 04:08:18;;;;;;;0.03;0.03;;;;;;;7.72;68.11;101032.66;7357617;19;20082;-59
2021/12/22 04:10:48;;;;;;;0.00;0.00;;;;;;;7.73;68.13;101036.13;7361741;19;20061;-59
2021/12/22 04:13:14;;;;;;;0.00;0.00;;;;;;;7.75;67.68;101052.56;7358528;19;20011;-58
2021/12/22 04:15:41;;;;;;;0.00;0.00;;;;;;;7.73;68.06;101046.53;7363157;19;20006;-58
2021/12/22 04:18:06;;;;;;;0.00;0.00;;;;;;;7.71;67.86;101037.88;7363216;19;20388;-59
2021/12/22 04:20:32;;;;;;;0.00;0.00;;;;;;;7.71;67.75;101035.28;7356989;19;20010;-58
2021/12/22 04:22:59;;;;;;;0.00;0.00;;;;;;;7.72;67.96;101039.59;7362175;19;20015;-59
2021/12/22 04:25:26;;;;;;;0.00;0.00;;;;;;;7.72;67.70;101034.41;7353831;19;20014;-58
2021/12/22 04:27:56;;;;;;;0.00;0.00;;;;;;;7.72;67.65;101024.84;7365730;19;20014;-58
2021/12/22 04:30:24;;;;;;;0.10;0.10;;;;;;;7.72;67.48;101018.81;7362821;19;20015;-59
2021/12/22 04:32:49;;;;;;;;;;;;;;;7.75;67.79;101013.56;7358953;19;20035;-59
2021/12/22 04:35:15;;;;;;;0.00;0.00;;;;;;;7.71;67.29;101017.09;7339899;19;19919;-58
2021/12/22 04:37:41;;;;;;;0.10;0.10;;;;;;;7.38;67.41;100956.63;7363212;19;20011;-58
2021/12/22 04:40:07;;;;;;;0.00;0.00;;;;;;;7.70;67.36;101002.34;7361442;19;20006;-59
2021/12/22 04:42:33;;;;;;;0.00;0.00;;;;;;;7.64;67.57;100989.38;7363180;19;20011;-59
2021/12/22 04:45:00;;;;;;;0.00;0.00;;;;;;;7.69;67.55;101011.00;7366744;19;20002;-58
2021/12/22 04:47:26;;;;;;;0.00;0.00;;;;;;;7.67;67.70;101000.63;7365266;19;20751;-59
2021/12/22 04:49:51;;;;;;;0.00;0.00;;;;;;;7.66;68.02;100992.84;7365482;19;20010;-59
2021/12/22 04:52:20;;;;;;;0.00;0.00;;;;;;;7.66;67.81;101004.09;7366148;19;20002;-59
2021/12/22 04:55:03;;;;;;;0.03;0.03;;;;;;;7.65;67.88;101001.50;7360680;19;20745;-59
2021/12/22 04:57:29;;;;;;;0.00;0.00;;;;;;;7.71;68.05;100998.88;7362791;19;20095;-58
2021/12/22 04:59:55;;;;;;;0.00;0.00;;;;;;;7.72;68.38;100992.81;7361313;19;20018;-57
2021/12/22 05:02:20;;;;;;;0.00;0.00;;;;;;;7.70;68.37;100976.34;7365792;19;20947;-59
2021/12/22 05:04:46;;;;;;;0.10;0.10;;;;;;;7.74;68.52;100978.06;7365448;19;20031;-57
2021/12/22 05:07:11;;;;;;;0.10;0.10;;;;;;;7.76;68.61;100964.19;7365759;19;20010;-59
2021/12/22 05:09:37;;;;;;;0.00;0.00;;;;;;;7.77;69.06;100963.31;7364609;19;20027;-59
2021/12/22 05:12:02;;;;;;;0.00;0.00;;;;;;;7.79;68.94;100963.28;7362191;19;20010;-58
2021/12/22 05:14:28;;;;;;;0.10;0.10;;;;;;;7.82;68.78;100960.69;7363223;19;20018;-59
2021/12/22 05:16:59;;;;;;;0.00;0.00;;;;;;;7.81;68.87;100966.75;7373775;19;20047;-59
2021/12/22 05:19:25;;;;;;;0.00;0.00;;;;;;;7.80;68.86;100950.25;7368492;19;20014;-59
2021/12/22 05:21:50;;;;;;;0.00;0.00;;;;;;;7.85;68.45;100950.22;7371995;19;20007;-59
2021/12/22 05:24:16;;;;;;;0.00;0.00;;;;;;;7.91;68.90;100955.41;7369795;19;20773;-59
2021/12/22 05:26:41;;;;;;;0.00;0.00;;;;;;;7.92;68.91;100948.47;7370409;19;20006;-59
2021/12/22 05:29:07;;;;;;;0.10;0.10;;;;;;;7.93;69.05;100945.00;7369903;19;20106;-59
2021/12/22 05:31:32;;;;;;;0.00;0.00;;;;;;;7.95;68.82;100932.81;7369990;19;20011;-59
2021/12/22 05:33:58;;;;;;;0.00;0.00;;;;;;;7.94;68.63;100931.97;7372307;19;20082;-58
2021/12/22 05:36:23;;;;;;;0.00;0.00;;;;;;;7.98;68.87;100933.69;7368698;19;20006;-59
2021/12/22 05:38:49;;;;;;;0.00;0.00;;;;;;;8.00;69.04;100921.50;7369230;19;20551;-59
2021/12/22 05:41:14;;;;;;;0.00;0.00;;;;;;;8.02;68.87;100919.78;7367270;19;21232;-59
2021/12/22 05:43:40;;;;;;;0.00;0.00;;;;;;;7.88;68.70;100900.81;7371218;19;20422;-59
2021/12/22 05:46:05;;;;;;;0.10;0.10;;;;;;;8.04;69.04;100909.34;7370519;19;20933;-59
2021/12/22 05:48:31;;;;;;;0.00;0.00;;;;;;;7.93;68.82;100893.84;7369718;19;20351;-59
2021/12/22 05:50:58;;;;;;;0.00;0.00;;;;;;;8.08;68.75;100913.66;7369920;19;20014;-58
2021/12/22 05:53:28;;;;;;;0.00;0.00;;;;;;;8.12;68.70;100909.28;7371568;19;20014;-59
2021/12/22 05:55:55;;;;;;;0.05;0.05;;;;;;;8.10;68.96;100892.81;7368811;19;20017;-59
2021/12/22 05:58:21;;;;;;;0.00;0.00;;;;;;;8.12;68.63;100894.56;7369863;19;20017;-59
2021/12/22 06:00:47;;;;;;;0.08;0.08;;;;;;;8.01;68.64;100876.44;7368462;19;20343;-59
2021/12/22 06:03:13;;;;;;;0.00;0.00;;;;;;;8.15;68.78;100899.69;7371240;19;20086;-58
2021/12/22 06:05:39;;;;;;;0.00;0.00;;;;;;;8.15;68.64;100889.28;7361957;19;20015;-59
2021/12/22 06:08:05;;;;;;;0.08;0.08;;;;;;;8.21;68.97;100903.97;7345833;19;20027;-58
2021/12/22 06:10:34;;;;;;;0.10;0.10;;;;;;;8.11;68.89;100871.13;7366364;19;20079;-59
2021/12/22 06:13:04;;;;;;;0.00;0.00;;;;;;;8.19;69.27;100884.94;7370698;19;20035;-59
2021/12/22 06:15:29;;;;;;;0.00;0.00;;;;;;;8.21;69.28;100883.16;7365371;19;20026;-59
2021/12/22 06:17:57;;;;;;;0.03;0.03;;;;;;;8.24;69.52;100885.75;7369627;19;20034;-59
2021/12/22 06:20:23;;;;;;;0.00;0.00;;;;;;;8.25;69.22;100879.66;7363373;19;20023;-58
2021/12/22 06:22:49;;;;;;;0.00;0.00;;;;;;;8.25;69.34;100877.06;7371054;19;20017;-58
2021/12/22 06:25:14;;;;;;;0.00;0.00;;;;;;;8.16;69.59;100858.94;7363100;19;20010;-59
2021/12/22 06:27:40;;;;;;;0.10;0.10;;;;;;;8.21;69.78;100873.66;7367791;19;20090;-59
2021/12/22 06:30:05;;;;;;;0.00;0.00;;;;;;;8.25;69.95;100890.06;7369481;19;20014;-58
2021/12/22 06:32:31;;;;;;;0.10;0.10;;;;;;;8.25;69.61;100874.47;7364892;19;20021;-59
2021/12/22 06:34:56;;;;;;;0.00;0.00;;;;;;;8.26;69.82;100876.19;7369258;19;20094;-59
2021/12/22 06:37:22;;;;;;;0.00;0.00;;;;;;;8.25;70.00;100864.06;7369971;19;20014;-59
2021/12/22 06:39:47;;;;;;;0.00;0.00;;;;;;;8.18;70.00;100857.22;7365252;19;20886;-59
2021/12/22 06:42:13;;;;;;;0.03;0.03;;;;;;;8.24;70.21;100867.53;7368586;19;20014;-59
2021/12/22 06:44:38;;;;;;;0.08;0.08;;;;;;;8.24;70.12;100867.53;7365447;19;20048;-59
2021/12/22 06:47:04;;;;;;;0.00;0.00;;;;;;;8.16;69.98;100864.16;7368180;19;20038;-58
2021/12/22 06:49:29;;;;;;;0.00;0.00;;;;;;;8.25;70.96;100879.66;7367279;19;20018;-59
2021/12/22 06:51:55;;;;;;;0.05;0.05;;;;;;;8.22;71.38;100884.91;7362205;19;20018;-59
2021/12/22 06:54:20;;;;;;;0.00;0.00;;;;;;;8.21;71.79;100885.78;7368747;19;20015;-58
2021/12/22 06:56:46;;;;;;;0.00;0.00;;;;;;;8.10;71.69;100870.28;7367211;19;20002;-59
2021/12/22 06:59:13;;;;;;;0.10;0.10;;;;;;;8.17;71.02;100873.69;7365300;19;20018;-58
2021/12/22 07:01:39;;;;;;;0.00;0.00;;;;;;;8.15;71.20;100863.28;7366064;19;20015;-58
2021/12/22 07:04:06;;;;;;;0.00;0.00;;;;;;;8.12;71.33;100857.28;7368126;19;20902;-57
2021/12/22 07:06:32;;;;;;;0.00;0.00;;;;;;;7.96;71.86;100826.22;7368795;19;20014;-59
2021/12/22 07:08:58;;;;;;;0.00;0.00;;;;;;;8.05;72.57;100862.50;7364407;19;20017;-59
2021/12/22 07:11:24;;;;;;;0.00;0.00;;;;;;;7.94;72.17;100843.56;7370090;19;20017;-59
2021/12/22 07:13:49;;;;;;;0.00;0.00;;;;;;;7.99;73.09;100846.97;7363926;19;20006;-59
2021/12/22 07:16:14;;;;;;;0.00;0.00;;;;;;;7.97;72.81;100856.53;7368547;19;20010;-59
2021/12/22 07:18:40;;;;;;;0.00;0.00;;;;;;;7.94;73.17;100843.56;7366412;19;20663;-60
2021/12/22 07:21:05;;;;;;;0.00;0.00;;;;;;;7.92;73.13;100840.13;7364647;19;20006;-59
2021/12/22 07:23:31;;;;;;;0.00;0.00;;;;;;;7.89;73.61;100840.13;7368573;19;20529;-59
2021/12/22 07:25:56;;;;;;;0.00;0.00;;;;;;;7.88;72.66;100838.41;7367461;19;20549;-60
2021/12/22 07:28:22;;;;;;;0.00;0.00;;;;;;;7.86;73.89;100845.38;7359349;19;20042;-59
2021/12/22 07:30:47;;;;;;;0.00;0.00;;;;;;;7.86;73.39;100847.13;7364961;19;20014;-59
2021/12/22 07:33:13;;;;;;;0.00;0.00;;;;;;;7.83;73.10;100854.94;7368541;19;20030;-59
2021/12/22 07:35:50;;;;;;;0.00;0.00;;;;;;;7.82;73.06;100864.47;7363278;19;20014;-59
2021/12/22 07:38:25;;;;;;;;;;;;;;;7.80;72.12;100877.47;7366780;19;20017;-59
2021/12/22 07:40:54;;;;;;;0.00;0.00;;;;;;;7.78;73.08;100870.56;7367250;19;20024;-59
2021/12/22 07:43:20;;;;;;;0.00;0.00;;;;;;;7.73;74.60;100870.63;7363502;19;20081;-59
2021/12/22 07:45:46;;;;;;;0.00;0.00;;;;;;;7.64;74.33;100862.03;7354961;19;20074;-59
2021/12/22 07:48:12;;;;;;;0.00;0.00;;;;;;;7.64;75.10;100867.22;7366870;19;20086;-59
2021/12/22 07:50:38;;;;;;;0.00;0.00;;;;;;;7.67;75.65;100875.00;7354814;19;20495;-59
2021/12/22 07:53:03;;;;;;;0.00;0.00;;;;;;;7.68;75.03;100871.53;7367234;19;20085;-59
2021/12/22 07:55:29;;;;;;;0.00;0.00;;;;;;;7.69;74.84;100879.31;7360214;19;20006;-60
2021/12/22 07:57:54;;;;;;;0.00;0.00;;;;;;;7.65;74.92;100871.53;7356969;19;20018;-60
2021/12/22 08:00:20;;;;;;;0.00;0.00;;;;;;;7.70;75.12;100870.63;7362123;19;20026;-60
2021/12/22 08:02:45;;;;;;;0.00;0.00;;;;;;;7.73;74.89;100869.75;7360268;19;20082;-59
2021/12/22 08:05:11;;;;;;;0.00;0.00;;;;;;;7.72;75.59;100868.03;7366235;19;20010;-59
2021/12/22 08:07:36;;;;;;;0.00;0.00;;;;;;;7.70;75.72;100848.97;7359936;19;20014;-60
2021/12/22 08:10:04;;;;;;;0.00;0.00;;;;;;;7.56;75.28;100830.06;7363450;19;20880;-60
2021/12/22 08:12:29;;;;;;;0.00;0.00;;;;;;;7.73;75.14;100862.81;7363700;19;20011;-59
2021/12/22 08:14:55;;;;;;;0.00;0.00;;;;;;;7.73;75.27;100859.34;7359463;19;20042;-60
2021/12/22 08:17:21;;;;;;;0.00;0.00;;;;;;;7.71;75.91;100855.91;7360861;19;20011;-59
2021/12/22 08:19:47;;;;;;;0.00;0.00;;;;;;;7.71;76.33;100861.97;7361578;19;20045;-59
2021/12/22 08:22:12;;;;;;;0.00;0.00;;;;;;;7.71;76.07;100855.91;7357194;19;20018;-60
2021/12/22 08:24:38;;;;;;;0.00;0.00;;;;;;;7.72;75.31;100874.09;7367016;19;20011;-60
2021/12/22 08:27:04;;;;;;;0.00;0.00;;;;;;;7.71;76.17;100869.78;7353471;19;20010;-59
2021/12/22 08:29:30;;;;;;;0.00;0.00;;;;;;;7.70;76.09;100869.78;7360105;19;20812;-59
2021/12/22 08:31:55;;;;;;;0.00;0.00;;;;;;;7.71;76.88;100861.13;7358774;19;20069;-59
2021/12/22 08:34:26;;;;;;;0.00;0.00;;;;;;;7.70;76.99;100844.63;7362472;19;20010;-60
2021/12/22 08:39:37;;;;;;;0.00;0.00;;;;;;;7.71;76.59;100814.34;7365738;19;20021;-60
2021/12/22 08:42:02;;;;;;;0.00;0.00;;;;;;;7.65;77.14;100803.97;7365887;19;21190;-60
2021/12/22 08:44:28;;;;;;;0.00;0.00;;;;;;;7.71;77.06;100803.94;7358931;19;20010;-58
2021/12/22 08:46:55;;;;;;;0.00;0.00;;;;;;;7.72;77.05;100806.50;7365757;19;20022;-60
2021/12/22 08:49:22;;;;;;;0.10;0.10;;;;;;;7.74;77.51;100802.16;7361662;19;20014;-60
2021/12/22 08:51:49;;;;;;;0.00;0.00;;;;;;;7.75;77.15;100796.06;7372204;19;20046;-60
2021/12/22 08:54:14;;;;;;;0.00;0.00;;;;;;;7.76;76.92;100789.16;7374404;19;20006;-60
2021/12/22 08:56:41;;;;;;;0.00;0.00;;;;;;;7.77;77.61;100775.28;7356798;19;22225;-60
2021/12/22 08:59:08;;;;;;;0.10;0.10;;;;;;;7.79;77.59;100756.16;7372337;19;20559;-59
2021/12/22 09:01:34;;;;;;;0.03;0.03;;;;;;;7.80;77.49;100751.84;7355679;19;20013;-58
2021/12/22 09:03:59;;;;;;;0.10;0.10;;;;;;;7.79;77.64;100734.53;7363565;19;20452;-60
2021/12/22 09:06:25;;;;;;;0.00;0.00;;;;;;;7.79;77.28;100721.53;7367462;19;20010;-61
2021/12/22 09:08:52;;;;;;;0.00;0.00;;;;;;;7.75;77.36;100701.63;7368704;19;20015;-61
2021/12/22 09:11:19;;;;;;;0.00;0.00;;;;;;;7.81;76.97;100706.78;7369501;19;20054;-60
2021/12/22 09:13:44;;;;;;;0.00;0.00;;;;;;;7.82;77.22;100705.91;7364673;19;20014;-60
2021/12/22 09:16:11;;;;;;;0.00;0.00;;;;;;;7.83;77.25;100706.75;7364149;19;20025;-58
2021/12/22 09:18:36;;;;;;;0.00;0.00;;;;;;;7.76;77.64;100704.22;7367925;19;21021;-60
2021/12/22 09:21:03;;;;;;;0.10;0.10;;;;;;;7.83;78.05;100715.41;7368784;19;20015;-61
2021/12/22 09:23:28;;;;;;;0.05;0.05;;;;;;;7.84;78.54;100717.13;7367931;19;20006;-61
2021/12/22 09:25:54;;;;;;;0.00;0.00;;;;;;;7.78;78.42;100681.66;7365670;19;20013;-61
2021/12/22 09:28:19;;;;;;;0.10;0.10;;;;;;;7.88;78.46;100687.63;7369260;19;20013;-61
2021/12/22 09:30:45;;;;;;;0.10;0.10;;;;;;;7.91;78.15;100684.16;7366183;19;20013;-61
2021/12/22 09:33:14;;;;;;;0.00;0.00;;;;;;;7.93;78.34;100684.97;7368813;19;20485;-61
2021/12/22 09:35:42;;;;;;;0.00;0.00;;;;;;;7.94;78.08;100687.53;7360160;19;20007;-61
2021/12/22 09:38:08;;;;;;;0.05;0.05;;;;;;;7.96;78.39;100693.59;7370694;19;20011;-60
2021/12/22 09:40:35;;;;;;;0.03;0.03;;;;;;;7.98;78.58;100677.97;7373152;19;20399;-61
2021/12/22 09:43:00;;;;;;;0.00;0.00;;;;;;;8.01;77.79;100693.56;7368074;19;20074;-61
2021/12/22 09:45:26;;;;;;;0.00;0.00;;;;;;;8.02;78.33;100695.25;7367412;19;20012;-62
2021/12/22 09:52:15;;;;;;;0.10;0.10;;;;;;;7.95;78.25;100689.25;7255086;19;2004530;-61
2021/12/22 09:53:45;;;;;;;0.00;0.00;;;;;;;8.10;77.99;100697.75;7267990;19;2004499;-61
2021/12/22 09:56:14;;;;;;;0.00;0.00;;;;;;;8.06;78.26;100687.41;7368786;19;20002;-60
2021/12/22 09:58:42;;;;;;;0.00;0.00;;;;;;;8.12;78.55;100680.41;7347614;19;20027;-60
2021/12/22 10:01:08;;;;;;;0.00;0.00;;;;;;;8.12;78.38;100681.28;7362589;19;20130;-61
2021/12/22 10:03:34;;;;;;;0.10;0.10;;;;;;;8.11;78.70;100682.16;7369463;19;20007;-61
2021/12/22 10:06:00;;;;;;;0.00;0.00;;;;;;;8.04;78.36;100655.34;7370119;19;21027;-62
2021/12/22 10:08:26;;;;;;;0.10;0.10;;;;;;;8.15;78.54;100649.13;7366488;19;20096;-59
2021/12/22 10:11:09;;;;;;;0.00;0.00;;;;;;;8.22;78.07;100643.84;7364703;19;20020;-62
2021/12/22 10:13:36;;;;;;;0.00;0.00;;;;;;;8.21;78.55;100633.44;7365634;19;20006;-61
2021/12/22 10:16:17;;;;;;;0.00;0.00;;;;;;;8.25;77.78;100650.72;7365906;19;20034;-63
2021/12/22 10:18:43;;;;;;;0.00;0.00;;;;;;;8.24;78.51;100638.63;7366973;19;20010;-62
2021/12/22 10:21:14;;;;;;;0.00;0.00;;;;;;;8.27;78.32;100628.19;7365770;19;20078;-62
2021/12/22 10:23:43;;;;;;;0.00;0.00;;;;;;;8.28;78.13;100622.09;7361793;19;20012;-62
2021/12/22 10:26:12;;;;;;;0.00;0.00;;;;;;;8.29;78.17;100626.41;7363516;19;20519;-62
2021/12/22 10:28:54;;;;;;;0.10;0.10;;;;;;;8.33;77.70;100620.28;7361564;19;20085;-61
2021/12/22 10:31:31;;;;;;;0.10;0.10;;;;;;;8.32;78.33;100615.97;7366317;19;20054;-62
2021/12/22 10:33:58;;;;;;;0.10;0.10;;;;;;;8.28;78.66;100603.88;7363782;19;20972;-63
2021/12/22 10:36:23;;;;;;;0.00;0.00;;;;;;;8.30;78.15;100617.72;7366839;19;20033;-61
2021/12/22 10:38:59;;;;;;;0.10;0.10;;;;;;;8.30;78.59;100609.91;7364432;19;20871;-60
2021/12/22 10:41:28;;;;;;;0.05;0.05;;;;;;;8.31;78.68;100614.22;7354834;19;20006;-63
2021/12/22 10:43:53;;;;;;;0.00;0.00;;;;;;;8.30;78.22;100615.09;7354624;19;20010;-60
2021/12/22 10:46:25;;;;;;;0.10;0.10;;;;;;;8.32;78.71;100615.97;7360829;19;20021;-62
2021/12/22 10:49:17;;;;;;;0.00;0.00;;;;;;;8.22;78.16;100599.63;7359983;19;20035;-61
2021/12/22 10:51:47;;;;;;;0.05;0.05;;;;;;;8.33;78.71;100622.88;7260492;19;2004481;-62
2021/12/22 10:54:15;;;;;;;0.00;0.00;;;;;;;8.33;78.82;100622.88;7361199;19;20478;-62
2021/12/22 10:56:46;;;;;;;0.00;0.00;;;;;;;8.35;78.01;100617.66;7357555;19;20042;-61
2021/12/22 10:59:16;;;;;;;0.00;0.00;;;;;;;8.33;78.49;100622.88;7353110;19;20093;-62
2021/12/22 11:01:54;;;;;;;0.00;0.00;;;;;;;8.35;78.46;100615.91;7361437;19;20011;-62
2021/12/22 11:04:27;;;;;;;0.00;0.00;;;;;;;8.34;78.61;100624.59;7356837;19;20019;-62
2021/12/22 11:07:07;;;;;;;0.10;0.10;;;;;;;8.24;78.95;100612.59;7365073;19;20014;-61
2021/12/22 11:09:34;;;;;;;0.10;0.10;;;;;;;8.32;78.99;100610.75;7363808;19;20006;-62
2021/12/22 11:12:01;;;;;;;0.10;0.10;;;;;;;8.33;78.92;100591.66;7358533;19;20018;-62
2021/12/22 11:14:29;;;;;;;0.00;0.00;;;;;;;8.33;78.77;100576.03;7356985;19;20010;-63
2021/12/22 11:17:15;;;;;;;0.03;0.03;;;;;;;8.36;78.04;100560.41;7364073;19;20375;-61
2021/12/22 11:20:03;;;;;;;0.00;0.00;;;;;;;8.36;78.19;100547.41;7355802;19;20012;-61
2021/12/22 11:22:41;;;;;;;0.00;0.00;;;;;;;8.36;78.15;100576.00;7354090;19;20110;-60
2021/12/22 11:25:11;;;;;;;;;;;;;;;8.37;77.77;100556.94;7364787;19;21077;-61
2021/12/22 11:27:37;;;;;;;0.00;0.00;;;;;;;8.34;78.55;100556.94;7360779;19;19915;-62
2021/12/22 11:30:03;;;;;;;0.00;0.00;;;;;;;8.32;78.57;100543.97;7364109;19;20003;-63
2021/12/22 11:32:31;;;;;;;0.00;0.00;;;;;;;8.32;78.68;100537.91;7362935;19;20015;-64
2021/12/22 11:35:03;;;;;;;0.00;0.00;;;;;;;8.33;78.94;100529.22;7359682;19;21321;-60
2021/12/22 11:37:29;;;;;;;0.00;0.00;;;;;;;8.31;79.12;100543.97;7357415;19;20011;-62
2021/12/22 11:39:57;;;;;;;0.00;0.00;;;;;;;8.33;78.91;100534.41;7363119;19;20437;-62
2021/12/22 11:42:27;;;;;;;0.10;0.10;;;;;;;8.32;79.20;100537.91;7362388;19;20007;-62
2021/12/22 11:44:56;;;;;;;0.00;0.00;;;;;;;8.35;79.39;100532.63;7365067;19;20010;-63
2021/12/22 11:47:21;;;;;;;0.00;0.00;;;;;;;8.37;79.34;100532.66;7363070;19;20635;-63